In Rescue
 
Open Full Screen Window  High Contrast Mode
Wind Gusting 00 knots
04
November 20, 2019 1:59 AM EST
Present Weather: Mist
Weather Information
Wind Direction
  250 °
Wind Speed
  04 kt (5 mph)
Wind Gust
  00 kt (0 mph)
Altimeter
30.00 in
Visibility
5 SM
Temperature
02° C
36° F
Dewpoint
01° C
34° F
Humidity
93%
1hr Rain Fall
00.00 in.
24hr Rain Fall
00.01 in.
Sky Condition
Overcast @ 3,500 ft
MVFR

METAR KOZW 200659Z AUTO 25004KT 5SM BR OVC035 02/01 A3000 RMK AO2 T00220006

FAA Disclaimer: The data displayed is for advisory purposes only and is not to be used for flight planning or operations.